createdAt,value
2023-05-05T00:02:53.818Z,100690.91
2023-05-05T00:05:56.906Z,100673.06
2023-05-05T00:08:59.654Z,100678.25
2023-05-05T00:12:03.066Z,100683.81
2023-05-05T00:15:06.519Z,100691.59
2023-05-05T00:18:10.027Z,100690.13
2023-05-05T00:21:13.389Z,100683.47
2023-05-05T00:24:16.369Z,100673.06
2023-05-05T00:27:19.104Z,100657.50
2023-05-05T00:30:22.442Z,100663.97
2023-05-05T00:33:25.942Z,100667.38
2023-05-05T00:36:28.788Z,100670.97
2023-05-05T00:39:31.670Z,100666.88
2023-05-05T00:42:48.342Z,100666.25
2023-05-05T00:46:03.831Z,100666.09
2023-05-05T00:49:07.244Z,100666.56
2023-05-05T00:52:10.982Z,100666.28
2023-05-05T00:55:13.852Z,100667.06
2023-05-05T00:58:17.188Z,100655.69
2023-05-05T01:01:20.404Z,100663.00
2023-05-05T01:04:23.293Z,100661.06
2023-05-05T01:07:47.527Z,100671.13
2023-05-05T01:11:01.572Z,100653.75
2023-05-05T01:14:18.065Z,100655.88
2023-05-05T01:17:24.697Z,100653.25
2023-05-05T01:20:33.266Z,100657.34
2023-05-05T01:24:08.031Z,100654.91
2023-05-05T01:27:19.511Z,100661.88
2023-05-05T01:30:25.054Z,100658.13
2023-05-05T01:33:32.585Z,100660.09
2023-05-05T01:36:39.907Z,100653.09
2023-05-05T01:39:44.832Z,100658.31
2023-05-05T01:42:49.208Z,100665.59
2023-05-05T01:45:53.913Z,100651.63
2023-05-05T01:48:59.104Z,100659.72
2023-05-05T01:52:03.900Z,100661.50
2023-05-05T01:55:08.675Z,100652.91
2023-05-05T01:58:13.983Z,100649.00
2023-05-05T02:01:18.969Z,100645.78
2023-05-05T02:04:23.364Z,100643.19
2023-05-05T02:07:27.602Z,100643.84
2023-05-05T02:10:31.230Z,100652.78
2023-05-05T02:13:35.356Z,100651.31
2023-05-05T02:16:41.414Z,100648.84
2023-05-05T02:19:46.429Z,100641.38
2023-05-05T02:22:49.791Z,100647.19
2023-05-05T02:25:56.614Z,100641.53
2023-05-05T02:29:07.584Z,100645.09
2023-05-05T02:32:17.218Z,100644.47
2023-05-05T02:35:28.641Z,100639.28
2023-05-05T02:38:32.879Z,100635.00
2023-05-05T02:41:39.727Z,100643.56
2023-05-05T02:44:51.690Z,100648.56
2023-05-05T02:47:55.473Z,100633.31
2023-05-05T02:50:59.747Z,100633.84
2023-05-05T02:54:11.965Z,100641.47
2023-05-05T02:57:18.629Z,100640.66
2023-05-05T03:00:40.303Z,100639.53
2023-05-05T03:03:54.745Z,100647.16
2023-05-05T03:07:04.869Z,100639.91
2023-05-05T03:10:15.441Z,100637.44
2023-05-05T03:13:27.022Z,100637.09
2023-05-05T03:16:32.321Z,100638.19
2023-05-05T03:19:39.018Z,100642.63
2023-05-05T03:22:41.826Z,100641.28
2023-05-05T03:25:49.900Z,100645.22
2023-05-05T03:29:14.226Z,100643.41
2023-05-05T03:32:17.240Z,100638.03
2023-05-05T03:35:20.448Z,100635.59
2023-05-05T03:38:23.474Z,100637.25
2023-05-05T03:41:27.783Z,100638.88
2023-05-05T03:44:31.147Z,100636.47
2023-05-05T03:47:34.352Z,100643.22
2023-05-05T03:50:37.728Z,100647.63
2023-05-05T03:53:40.787Z,100643.69
2023-05-05T03:56:44.806Z,100650.50
2023-05-05T03:59:48.402Z,100654.09
2023-05-05T04:02:52.035Z,100653.63
2023-05-05T04:05:56.013Z,100658.34
2023-05-05T04:08:58.843Z,100668.34
2023-05-05T04:12:03.227Z,100668.38
2023-05-05T04:15:07.061Z,100661.75
2023-05-05T04:18:10.725Z,100659.34
2023-05-05T04:21:14.142Z,100658.91
2023-05-05T04:24:19.278Z,100663.00
2023-05-05T04:27:22.325Z,100655.22
2023-05-05T04:30:25.459Z,100656.50
2023-05-05T04:33:28.578Z,100657.81
2023-05-05T04:36:31.721Z,100660.06
2023-05-05T04:39:35.415Z,100663.47
2023-05-05T04:42:40.022Z,100669.63
2023-05-05T04:45:53.014Z,100667.88
2023-05-05T04:48:59.256Z,100661.66
2023-05-05T04:52:02.294Z,100668.25
2023-05-05T04:55:05.787Z,100671.63
2023-05-05T04:58:09.411Z,100666.88
2023-05-05T05:01:12.193Z,100674.31
2023-05-05T05:04:18.680Z,100684.13
2023-05-05T05:07:21.743Z,100673.81
2023-05-05T05:10:24.532Z,100684.97
2023-05-05T05:13:27.387Z,100678.13
2023-05-05T05:16:30.275Z,100682.69
2023-05-05T05:19:33.323Z,100682.03
2023-05-05T05:22:38.911Z,100681.78
2023-05-05T05:25:46.245Z,100686.78
2023-05-05T05:28:51.360Z,100691.94
2023-05-05T05:31:54.422Z,100690.25
2023-05-05T05:34:57.329Z,100690.84
2023-05-05T05:38:00.129Z,100704.84
2023-05-05T05:41:07.812Z,100696.47
2023-05-05T05:44:12.661Z,100695.63
2023-05-05T05:47:15.818Z,100712.28
2023-05-05T05:50:19.191Z,100701.53
2023-05-05T05:53:22.323Z,100702.66
2023-05-05T05:56:25.945Z,100707.25
2023-05-05T05:59:29.521Z,100706.38
2023-05-05T06:02:32.802Z,100711.34
2023-05-05T06:05:35.878Z,100710.78
2023-05-05T06:08:38.985Z,100711.75
2023-05-05T06:11:42.631Z,100712.34
2023-05-05T06:14:45.411Z,100712.69
2023-05-05T06:17:48.303Z,100715.09
2023-05-05T06:20:52.489Z,100710.94
2023-05-05T06:23:57.677Z,100712.41
2023-05-05T06:27:00.673Z,100709.81
2023-05-05T06:30:03.916Z,100699.81
2023-05-05T06:33:06.811Z,100705.72
2023-05-05T06:36:09.829Z,100704.19
2023-05-05T06:39:14.022Z,100706.88
2023-05-05T06:42:19.090Z,100705.91
2023-05-05T06:45:22.368Z,100705.53
2023-05-05T06:48:25.156Z,100707.16
2023-05-05T06:51:27.939Z,100702.94
2023-05-05T06:54:30.832Z,100705.78
2023-05-05T06:57:33.823Z,100702.94
2023-05-05T07:00:36.822Z,100700.13
2023-05-05T07:03:39.761Z,100705.22
2023-05-05T07:06:42.599Z,100699.72
2023-05-05T07:09:45.611Z,100699.72
2023-05-05T07:12:48.859Z,100701.13
2023-05-05T07:15:51.600Z,100699.31
2023-05-05T07:18:54.423Z,100695.66
2023-05-05T07:21:57.281Z,100696.44
2023-05-05T07:25:00.159Z,100695.19
2023-05-05T07:28:03.919Z,100699.47
2023-05-05T07:31:06.764Z,100685.88
2023-05-05T07:34:09.625Z,100687.84
2023-05-05T07:37:13.114Z,100688.56
2023-05-05T07:40:17.218Z,100690.53
2023-05-05T07:43:20.002Z,100690.66
2023-05-05T07:46:22.874Z,100690.84
2023-05-05T07:49:26.918Z,100694.16
2023-05-05T07:52:44.350Z,100694.00
2023-05-05T07:55:51.431Z,100691.84
2023-05-05T07:58:54.605Z,100685.31
2023-05-05T08:01:57.334Z,100693.97
2023-05-05T08:05:00.885Z,100688.63
2023-05-05T08:08:03.885Z,100691.53
2023-05-05T08:11:06.950Z,100693.22
2023-05-05T08:14:09.829Z,100696.59
2023-05-05T08:17:12.654Z,100693.97
2023-05-05T08:20:16.661Z,100698.72
2023-05-05T08:23:19.459Z,100693.81
2023-05-05T08:26:23.003Z,100697.75
2023-05-05T08:29:25.810Z,100697.19
2023-05-05T08:32:29.981Z,100695.81
2023-05-05T08:35:32.838Z,100701.66
2023-05-05T08:38:35.674Z,100698.13
2023-05-05T08:41:38.518Z,100699.72
2023-05-05T08:44:41.425Z,100697.28
2023-05-05T08:47:44.405Z,100692.81
2023-05-05T08:50:52.959Z,100699.25
2023-05-05T08:53:56.046Z,100700.09
2023-05-05T08:57:02.445Z,100687.69
2023-05-05T09:00:06.303Z,100692.00
2023-05-05T09:03:10.159Z,100686.31
2023-05-05T09:06:13.582Z,100676.44
2023-05-05T09:09:17.680Z,100680.19
2023-05-05T09:12:21.995Z,100679.22
2023-05-05T09:15:24.813Z,100674.22
2023-05-05T09:18:27.577Z,100676.56
2023-05-05T09:21:30.580Z,100677.28
2023-05-05T09:24:33.712Z,100680.34
2023-05-05T09:27:38.624Z,100676.72
2023-05-05T09:30:43.458Z,100674.97
2023-05-05T09:33:46.695Z,100677.50
2023-05-05T09:36:49.550Z,100662.53
2023-05-05T09:39:55.713Z,100663.50
2023-05-05T09:43:02.639Z,100656.47
2023-05-05T09:46:07.883Z,100655.19
2023-05-05T09:49:18.883Z,100647.38
2023-05-05T09:52:22.125Z,100647.94
2023-05-05T09:55:25.635Z,100647.66
2023-05-05T09:58:30.156Z,100634.66
2023-05-05T10:01:33.006Z,100643.34
2023-05-05T10:04:36.197Z,100633.94
2023-05-05T10:07:41.183Z,100643.41
2023-05-05T10:10:50.660Z,100639.28
2023-05-05T10:13:53.942Z,100643.28
2023-05-05T10:16:57.925Z,100633.34
2023-05-05T10:20:02.188Z,100635.00
2023-05-05T10:23:08.347Z,100633.97
2023-05-05T10:26:14.453Z,100631.56
2023-05-05T10:29:42.880Z,100612.63
2023-05-05T10:33:03.475Z,100622.09
2023-05-05T10:36:15.106Z,100625.06
2023-05-05T10:39:20.161Z,100617.06
2023-05-05T10:42:24.377Z,100609.19
2023-05-05T10:45:27.780Z,100599.56
2023-05-05T10:48:41.340Z,100605.25
2023-05-05T10:51:58.156Z,100595.72
2023-05-05T10:55:22.161Z,100590.38
2023-05-05T10:58:47.134Z,100589.72
2023-05-05T11:01:58.682Z,100579.19
2023-05-05T11:05:18.426Z,100583.09
2023-05-05T11:08:27.285Z,100577.88
2023-05-05T11:12:03.246Z,100577.47
2023-05-05T11:15:24.219Z,100581.50
2023-05-05T11:18:37.638Z,100580.59
2023-05-05T11:22:00.972Z,100577.88
2023-05-05T11:25:42.226Z,100576.59
2023-05-05T11:28:56.535Z,100571.38
2023-05-05T11:32:13.241Z,100574.31
2023-05-05T11:35:16.398Z,100563.25
2023-05-05T11:38:26.132Z,100564.78
2023-05-05T11:41:34.354Z,100553.16
2023-05-05T11:44:37.693Z,100551.81
2023-05-05T11:47:40.562Z,100541.53
2023-05-05T11:50:43.731Z,100546.03
2023-05-05T11:53:49.161Z,100543.97
2023-05-05T11:56:56.795Z,100537.03
2023-05-05T12:00:02.233Z,100541.09
2023-05-05T12:03:08.176Z,100540.13
2023-05-05T12:06:11.137Z,100535.88
2023-05-05T12:09:21.313Z,100534.56
2023-05-05T12:12:42.484Z,100537.91
2023-05-05T12:15:45.559Z,100529.69
2023-05-05T12:19:02.851Z,100523.47
2023-05-05T12:22:05.779Z,100520.00
2023-05-05T12:25:09.333Z,100530.00
2023-05-05T12:28:12.115Z,100513.78
2023-05-05T12:31:16.104Z,100519.22
2023-05-05T12:34:19.360Z,100509.03
2023-05-05T12:37:23.186Z,100506.91
2023-05-05T12:40:47.098Z,100505.81
2023-05-05T12:43:56.187Z,100496.16
2023-05-05T12:46:59.341Z,100490.81
2023-05-05T12:50:03.449Z,100495.81
2023-05-05T12:53:07.554Z,100486.78
2023-05-05T12:56:32.926Z,100482.81
2023-05-05T12:59:36.401Z,100490.28
2023-05-05T13:02:39.162Z,100472.53
2023-05-05T13:05:42.257Z,100475.06
2023-05-05T13:08:46.133Z,100465.13
2023-05-05T13:11:49.215Z,100457.56
2023-05-05T13:14:52.007Z,100458.94
2023-05-05T13:18:01.606Z,100460.00
2023-05-05T13:21:04.737Z,100448.09
2023-05-05T13:27:13.366Z,100443.38
2023-05-05T13:30:16.132Z,100436.44
2023-05-05T13:33:18.845Z,100428.38
2023-05-05T13:36:21.869Z,100426.09
2023-05-05T13:39:24.661Z,100427.16
2023-05-05T13:42:27.589Z,100424.09
2023-05-05T13:45:30.415Z,100424.88
2023-05-05T13:48:42.013Z,100423.50
2023-05-05T13:51:47.140Z,100417.97
2023-05-05T13:54:50.200Z,100416.13
2023-05-05T13:57:52.962Z,100412.56
2023-05-05T14:00:56.382Z,100413.19
2023-05-05T14:03:59.785Z,100411.03
2023-05-05T14:07:04.962Z,100404.66
2023-05-05T14:10:08.408Z,100410.22
2023-05-05T14:13:11.362Z,100418.28
2023-05-05T14:16:14.185Z,100413.00
2023-05-05T14:19:17.052Z,100406.47
2023-05-05T14:22:19.838Z,100390.69
2023-05-05T14:25:22.595Z,100391.31
2023-05-05T14:28:25.543Z,100388.94
2023-05-05T14:31:28.846Z,100388.44
2023-05-05T14:34:32.149Z,100387.59
2023-05-05T14:37:35.078Z,100378.84
2023-05-05T14:40:37.853Z,100378.00
2023-05-05T14:43:41.085Z,100379.22
2023-05-05T14:46:46.001Z,100384.59
2023-05-05T14:49:49.153Z,100379.56
2023-05-05T14:52:51.923Z,100387.59
2023-05-05T14:55:54.991Z,100379.59
2023-05-05T14:58:58.748Z,100375.59
2023-05-05T15:02:01.780Z,100380.69
2023-05-05T15:05:05.321Z,100376.81
2023-05-05T15:08:08.395Z,100376.22
2023-05-05T15:11:11.103Z,100379.25
2023-05-05T15:14:13.844Z,100368.91
2023-05-05T15:17:17.532Z,100368.44
2023-05-05T15:20:20.755Z,100373.47
2023-05-05T15:23:23.576Z,100369.66
2023-05-05T15:26:26.781Z,100368.69
2023-05-05T15:29:29.542Z,100367.41
2023-05-05T15:32:32.309Z,100367.28
2023-05-05T15:35:36.315Z,100367.47
2023-05-05T15:38:45.130Z,100353.56
2023-05-05T15:41:48.333Z,100362.06
2023-05-05T15:44:51.565Z,100357.28
2023-05-05T15:47:54.573Z,100360.94
2023-05-05T15:50:57.439Z,100359.63
2023-05-05T15:54:00.420Z,100332.81
2023-05-05T15:57:03.370Z,100342.38
2023-05-05T16:00:08.494Z,100344.31
2023-05-05T16:03:19.079Z,100343.84
2023-05-05T16:06:24.967Z,100340.50
2023-05-05T16:09:27.826Z,100338.63
2023-05-05T16:12:30.691Z,100342.38
2023-05-05T16:15:35.362Z,100344.09
2023-05-05T16:18:38.249Z,100339.53
2023-05-05T16:21:41.029Z,100335.31
2023-05-05T16:24:44.443Z,100337.22
2023-05-05T16:27:47.252Z,100338.25
2023-05-05T16:30:49.987Z,100338.28
2023-05-05T16:33:53.049Z,100335.88
2023-05-05T16:36:56.187Z,100339.44
2023-05-05T16:40:00.844Z,100331.53
2023-05-05T16:43:05.828Z,100331.78
2023-05-05T16:46:10.029Z,100332.06
2023-05-05T16:49:12.738Z,100334.84
2023-05-05T16:52:15.611Z,100323.38
2023-05-05T16:55:18.563Z,100328.19
2023-05-05T16:58:22.950Z,100326.53
2023-05-05T17:01:25.834Z,100327.38
2023-05-05T17:04:28.963Z,100328.31
2023-05-05T17:07:31.750Z,100333.88
2023-05-05T17:10:34.524Z,100335.69
2023-05-05T17:13:37.704Z,100335.56
2023-05-05T17:16:40.738Z,100336.34
2023-05-05T17:19:44.912Z,100325.00
2023-05-05T17:22:47.808Z,100333.53
2023-05-05T17:25:50.827Z,100339.41
2023-05-05T17:28:53.713Z,100339.19
2023-05-05T17:31:56.892Z,100340.44
2023-05-05T17:34:59.877Z,100357.19
2023-05-05T17:38:02.619Z,100347.72
2023-05-05T17:41:05.410Z,100351.97
2023-05-05T17:44:08.233Z,100352.53
2023-05-05T17:47:11.024Z,100352.44
2023-05-05T17:50:13.844Z,100358.97
2023-05-05T17:53:16.698Z,100352.03
2023-05-05T17:56:19.402Z,100357.28
2023-05-05T17:59:22.355Z,100358.81
2023-05-05T18:02:25.629Z,100363.47
2023-05-05T18:05:28.655Z,100366.56
2023-05-05T18:08:31.708Z,100364.53
2023-05-05T18:11:34.607Z,100359.34
2023-05-05T18:14:37.472Z,100361.56
2023-05-05T18:17:40.531Z,100366.44
2023-05-05T18:20:44.084Z,100364.97
2023-05-05T18:23:46.872Z,100362.94
2023-05-05T18:26:51.058Z,100367.00
2023-05-05T18:29:53.861Z,100370.06
2023-05-05T18:32:56.843Z,100379.88
2023-05-05T18:35:59.665Z,100389.50
2023-05-05T18:39:02.442Z,100387.72
2023-05-05T18:42:05.528Z,100390.97
2023-05-05T18:45:10.712Z,100381.78
2023-05-05T18:48:13.672Z,100390.09
2023-05-05T18:51:16.957Z,100392.03
2023-05-05T18:54:21.362Z,100393.25
2023-05-05T18:57:24.228Z,100396.09
2023-05-05T19:00:26.978Z,100388.44
2023-05-05T19:03:30.132Z,100397.78
2023-05-05T19:06:33.039Z,100391.94
2023-05-05T19:09:36.208Z,100398.22
2023-05-05T19:12:39.534Z,100403.13
2023-05-05T19:15:42.463Z,100392.66
2023-05-05T19:18:45.267Z,100400.19
2023-05-05T19:21:48.388Z,100396.25
2023-05-05T19:24:51.128Z,100401.72
2023-05-05T19:27:54.229Z,100402.75
2023-05-05T19:30:57.058Z,100403.97
2023-05-05T19:34:02.510Z,100397.75
2023-05-05T19:37:05.506Z,100400.75
2023-05-05T19:40:09.065Z,100399.53
2023-05-05T19:43:12.014Z,100415.47
2023-05-05T19:46:14.907Z,100407.38
2023-05-05T19:49:18.816Z,100403.16
2023-05-05T19:52:22.828Z,100398.34
2023-05-05T19:55:25.863Z,100401.38
2023-05-05T19:58:28.923Z,100399.13
2023-05-05T20:01:33.249Z,100399.34
2023-05-05T20:04:36.122Z,100396.31
2023-05-05T20:07:39.336Z,100390.03
2023-05-05T20:10:42.132Z,100400.31
2023-05-05T20:13:45.648Z,100396.66
2023-05-05T20:16:48.440Z,100398.03
2023-05-05T20:19:51.331Z,100393.53
2023-05-05T20:22:54.214Z,100394.31
2023-05-05T20:25:57.407Z,100405.19
2023-05-05T20:29:00.197Z,100400.75
2023-05-05T20:32:03.076Z,100403.56
2023-05-05T20:35:06.476Z,100400.78
2023-05-05T20:38:09.876Z,100397.47
2023-05-05T20:41:12.693Z,100395.47
2023-05-05T20:44:15.756Z,100393.81
2023-05-05T20:47:18.470Z,100391.38
2023-05-05T20:50:21.204Z,100400.97
2023-05-05T20:53:25.553Z,100394.06
2023-05-05T20:56:28.356Z,100388.59
2023-05-05T20:59:31.319Z,100386.63
2023-05-05T21:02:34.298Z,100393.19
2023-05-05T21:05:37.390Z,100383.75
2023-05-05T21:08:40.140Z,100388.34
2023-05-05T21:11:43.333Z,100395.38
2023-05-05T21:14:46.375Z,100391.09
2023-05-05T21:17:49.243Z,100389.41
2023-05-05T21:20:52.104Z,100390.38
2023-05-05T21:23:57.888Z,100386.38
2023-05-05T21:27:00.666Z,100384.44
2023-05-05T21:30:03.671Z,100376.44
2023-05-05T21:33:06.493Z,100381.03
2023-05-05T21:36:09.312Z,100381.78
2023-05-05T21:39:12.379Z,100372.16
2023-05-05T21:42:16.391Z,100378.72
2023-05-05T21:45:19.208Z,100378.53
2023-05-05T21:48:21.965Z,100373.16
2023-05-05T21:51:24.822Z,100367.44
2023-05-05T21:54:27.912Z,100366.59
2023-05-05T21:57:30.719Z,100360.34
2023-05-05T22:00:33.468Z,100367.94
2023-05-05T22:03:36.401Z,100355.81
2023-05-05T22:06:39.140Z,100356.19
2023-05-05T22:09:41.923Z,100360.34
2023-05-05T22:12:45.282Z,100358.09
2023-05-05T22:15:48.164Z,100347.41
2023-05-05T22:18:51.501Z,100350.97
2023-05-05T22:21:54.681Z,100361.25
2023-05-05T22:24:57.955Z,100351.44
2023-05-05T22:28:00.900Z,100363.09
2023-05-05T22:31:03.680Z,100364.66
2023-05-05T22:34:06.555Z,100358.81
2023-05-05T22:37:09.972Z,100354.16
2023-05-05T22:40:13.678Z,100352.72
2023-05-05T22:43:16.637Z,100358.41
2023-05-05T22:46:19.530Z,100352.38
2023-05-05T22:49:22.984Z,100357.41
2023-05-05T22:52:28.344Z,100367.94
2023-05-05T22:55:31.639Z,100369.00
2023-05-05T22:58:34.346Z,100369.38
2023-05-05T23:01:37.340Z,100364.97
2023-05-05T23:04:40.183Z,100368.19
2023-05-05T23:07:42.950Z,100366.97
2023-05-05T23:10:45.786Z,100365.06
2023-05-05T23:13:48.645Z,100365.78
2023-05-05T23:16:51.721Z,100369.56
2023-05-05T23:19:54.737Z,100362.13
2023-05-05T23:22:57.511Z,100360.75
2023-05-05T23:26:00.479Z,100357.78
2023-05-05T23:29:03.995Z,100353.38
2023-05-05T23:32:06.792Z,100365.50
2023-05-05T23:35:10.275Z,100353.38
2023-05-05T23:38:13.284Z,100354.44
2023-05-05T23:41:16.077Z,100358.03
2023-05-05T23:44:18.828Z,100355.97
2023-05-05T23:47:21.595Z,100353.47
2023-05-05T23:50:25.919Z,100348.78
2023-05-05T23:53:28.878Z,100351.75
2023-05-05T23:56:31.987Z,100353.41
2023-05-05T23:59:34.834Z,100350.75
